sensor_id;sensor_type;location;lat;lon;timestamp;pressure;altitude;pressure_sealevel;temperature;humidity
43745;BME280;29359;53.048;8.732;2024-03-22T00:01:42;102029.00;;;8.78;76.81
43745;BME280;29359;53.048;8.732;2024-03-22T00:03:43;102026.41;;;8.78;76.86
43745;BME280;29359;53.048;8.732;2024-03-22T00:05:43;102019.44;;;8.79;76.97
43745;BME280;29359;53.048;8.732;2024-03-22T00:07:44;102022.06;;;8.80;76.79
43745;BME280;29359;53.048;8.732;2024-03-22T00:09:44;102016.84;;;8.80;76.98
43745;BME280;29359;53.048;8.732;2024-03-22T00:11:45;102016.84;;;8.80;76.76
43745;BME280;29359;53.048;8.732;2024-03-22T00:13:45;102015.97;;;8.81;76.95
43745;BME280;29359;53.048;8.732;2024-03-22T00:15:46;102021.16;;;8.81;77.01
43745;BME280;29359;53.048;8.732;2024-03-22T00:17:47;102028.09;;;8.82;76.67
43745;BME280;29359;53.048;8.732;2024-03-22T00:19:47;102038.50;;;8.84;76.65
43745;BME280;29359;53.048;8.732;2024-03-22T00:21:48;102029.81;;;8.85;76.72
43745;BME280;29359;53.048;8.732;2024-03-22T00:23:48;102025.44;;;8.87;76.46
43745;BME280;29359;53.048;8.732;2024-03-22T00:25:49;102023.69;;;8.89;76.42
43745;BME280;29359;53.048;8.732;2024-03-22T00:27:50;102014.97;;;8.90;76.01
43745;BME280;29359;53.048;8.732;2024-03-22T00:29:50;102006.28;;;8.93;76.18
43745;BME280;29359;53.048;8.732;2024-03-22T00:31:51;102006.28;;;8.91;76.15
43745;BME280;29359;53.048;8.732;2024-03-22T00:33:51;102019.25;;;8.94;76.08
43745;BME280;29359;53.048;8.732;2024-03-22T00:35:52;102012.31;;;8.95;75.83
43745;BME280;29359;53.048;8.732;2024-03-22T00:37:52;102007.09;;;8.96;75.90
43745;BME280;29359;53.048;8.732;2024-03-22T00:39:53;102005.34;;;8.95;76.23
43745;BME280;29359;53.048;8.732;2024-03-22T00:41:54;102001.88;;;8.96;76.01
43745;BME280;29359;53.048;8.732;2024-03-22T00:43:54;102001.00;;;8.97;75.81
43745;BME280;29359;53.048;8.732;2024-03-22T00:45:55;101990.56;;;8.97;75.87
43745;BME280;29359;53.048;8.732;2024-03-22T00:47:55;101985.34;;;8.97;75.78
43745;BME280;29359;53.048;8.732;2024-03-22T00:49:56;101984.47;;;8.98;75.73
43745;BME280;29359;53.048;8.732;2024-03-22T00:51:56;101977.50;;;8.99;75.74
43745;BME280;29359;53.048;8.732;2024-03-22T00:53:57;101969.69;;;8.99;75.98
43745;BME280;29359;53.048;8.732;2024-03-22T00:55:57;101974.91;;;8.99;75.74
43745;BME280;29359;53.048;8.732;2024-03-22T00:57:59;101981.81;;;9.00;76.04
43745;BME280;29359;53.048;8.732;2024-03-22T01:00:00;101986.16;;;9.02;76.02
43745;BME280;29359;53.048;8.732;2024-03-22T01:02:00;101975.72;;;9.02;75.93
43745;BME280;29359;53.048;8.732;2024-03-22T01:04:01;101982.66;;;9.03;75.72
43745;BME280;29359;53.048;8.732;2024-03-22T01:06:01;101988.72;;;9.05;75.69
43745;BME280;29359;53.048;8.732;2024-03-22T01:08:02;101979.13;;;9.07;75.66
43745;BME280;29359;53.048;8.732;2024-03-22T01:10:04;101983.41;;;9.12;75.57
43745;BME280;29359;53.048;8.732;2024-03-22T01:12:05;101979.94;;;9.11;75.44
43745;BME280;29359;53.048;8.732;2024-03-22T01:14:05;101971.22;;;9.14;75.77
43745;BME280;29359;53.048;8.732;2024-03-22T01:16:06;101961.66;;;9.14;75.73
43745;BME280;29359;53.048;8.732;2024-03-22T01:18:10;101968.63;;;9.14;75.58
43745;BME280;29359;53.048;8.732;2024-03-22T01:20:10;101962.56;;;9.13;75.59
43745;BME280;29359;53.048;8.732;2024-03-22T01:22:11;101948.63;;;9.14;75.80
43745;BME280;29359;53.048;8.732;2024-03-22T01:24:11;101936.44;;;9.15;75.73
43745;BME280;29359;53.048;8.732;2024-03-22T01:26:12;101928.63;;;9.16;75.64
43745;BME280;29359;53.048;8.732;2024-03-22T01:28:12;101921.66;;;9.17;75.44
43745;BME280;29359;53.048;8.732;2024-03-22T01:30:13;101926.84;;;9.20;75.55
43745;BME280;29359;53.048;8.732;2024-03-22T01:32:14;101924.22;;;9.18;75.67
43745;BME280;29359;53.048;8.732;2024-03-22T01:34:14;101921.63;;;9.20;75.49
43745;BME280;29359;53.048;8.732;2024-03-22T01:36:15;101908.56;;;9.21;75.21
43745;BME280;29359;53.048;8.732;2024-03-22T01:38:15;101902.44;;;9.22;75.20
43745;BME280;29359;53.048;8.732;2024-03-22T01:40:16;101897.25;;;9.21;75.41
43745;BME280;29359;53.048;8.732;2024-03-22T01:42:16;101890.31;;;9.21;75.40
43745;BME280;29359;53.048;8.732;2024-03-22T01:44:17;101890.31;;;9.21;75.46
43745;BME280;29359;53.048;8.732;2024-03-22T01:46:18;101876.41;;;9.21;75.48
43745;BME280;29359;53.048;8.732;2024-03-22T01:48:19;101874.63;;;9.23;75.49
43745;BME280;29359;53.048;8.732;2024-03-22T01:50:23;101873.75;;;9.22;75.58
43745;BME280;29359;53.048;8.732;2024-03-22T01:52:24;101873.75;;;9.24;nan
43745;BME280;29359;53.048;8.732;2024-03-22T01:54:24;101867.69;;;9.22;75.67
43745;BME280;29359;53.048;8.732;2024-03-22T01:56:25;101861.59;;;9.23;75.74
43745;BME280;29359;53.048;8.732;2024-03-22T01:58:25;101872.09;;;9.20;75.73
43745;BME280;29359;53.048;8.732;2024-03-22T02:00:26;101869.47;;;9.20;75.85
43745;BME280;29359;53.048;8.732;2024-03-22T02:02:27;101864.28;;;9.20;75.76
43745;BME280;29359;53.048;8.732;2024-03-22T02:04:27;101865.09;;;9.22;75.83
43745;BME280;29359;53.048;8.732;2024-03-22T02:06:28;101865.06;;;9.23;75.80
43745;BME280;29359;53.048;8.732;2024-03-22T02:08:28;101862.47;;;9.22;75.67
43745;BME280;29359;53.048;8.732;2024-03-22T02:10:29;101859.88;;;9.22;75.86
43745;BME280;29359;53.048;8.732;2024-03-22T02:12:30;101856.44;;;9.20;76.12
43745;BME280;29359;53.048;8.732;2024-03-22T02:14:30;101859.06;;;9.20;76.12
43745;BME280;29359;53.048;8.732;2024-03-22T02:16:31;101848.63;;;9.20;76.10
43745;BME280;29359;53.048;8.732;2024-03-22T02:18:31;101852.06;;;9.22;76.02
43745;BME280;29359;53.048;8.732;2024-03-22T02:20:32;101839.03;;;9.22;76.18
43745;BME280;29359;53.048;8.732;2024-03-22T02:22:32;101835.56;;;9.21;76.25
43745;BME280;29359;53.048;8.732;2024-03-22T02:24:33;101829.47;;;9.21;76.38
43745;BME280;29359;53.048;8.732;2024-03-22T02:26:33;101832.09;;;9.21;76.41
43745;BME280;29359;53.048;8.732;2024-03-22T02:28:35;101824.28;;;9.21;76.27
43745;BME280;29359;53.048;8.732;2024-03-22T02:30:36;101823.38;;;9.22;76.56
43745;BME280;29359;53.048;8.732;2024-03-22T02:32:36;101816.41;;;9.24;76.52
43745;BME280;29359;53.048;8.732;2024-03-22T02:34:39;101802.53;;;9.22;76.83
43745;BME280;29359;53.048;8.732;2024-03-22T02:36:40;101802.47;;;9.23;76.80
43745;BME280;29359;53.048;8.732;2024-03-22T02:38:40;101816.41;;;9.22;77.03
43745;BME280;29359;53.048;8.732;2024-03-22T02:40:45;101808.53;;;9.25;77.01
43745;BME280;29359;53.048;8.732;2024-03-22T02:42:46;101812.91;;;9.25;76.96
43745;BME280;29359;53.048;8.732;2024-03-22T02:44:46;101802.44;;;9.26;77.19
43745;BME280;29359;53.048;8.732;2024-03-22T02:46:47;101797.22;;;9.26;77.27
43745;BME280;29359;53.048;8.732;2024-03-22T02:48:47;101799.81;;;9.26;77.24
43745;BME280;29359;53.048;8.732;2024-03-22T02:50:48;101800.69;;;9.27;77.22
43745;BME280;29359;53.048;8.732;2024-03-22T02:52:49;101803.28;;;9.27;77.68
43745;BME280;29359;53.048;8.732;2024-03-22T02:54:50;101798.06;;;9.27;77.63
43745;BME280;29359;53.048;8.732;2024-03-22T02:56:50;101799.81;;;9.28;77.53
43745;BME280;29359;53.048;8.732;2024-03-22T02:58:51;101791.97;;;9.29;77.67
43745;BME280;29359;53.048;8.732;2024-03-22T03:00:51;101784.09;;;9.31;77.55
43745;BME280;29359;53.048;8.732;2024-03-22T03:02:52;101772.81;;;9.30;77.61
43745;BME280;29359;53.048;8.732;2024-03-22T03:04:52;101770.22;;;9.30;77.78
43745;BME280;29359;53.048;8.732;2024-03-22T03:06:53;101771.91;;;9.33;77.84
43745;BME280;29359;53.048;8.732;2024-03-22T03:08:54;101772.75;;;9.33;77.77
43745;BME280;29359;53.048;8.732;2024-03-22T03:10:54;101760.59;;;9.34;77.99
43745;BME280;29359;53.048;8.732;2024-03-22T03:12:55;101764.03;;;9.34;78.07
43745;BME280;29359;53.048;8.732;2024-03-22T03:14:56;101750.16;;;9.36;77.91
43745;BME280;29359;53.048;8.732;2024-03-22T03:16:56;101748.38;;;9.36;77.97
43745;BME280;29359;53.048;8.732;2024-03-22T03:18:57;101744.94;;;9.36;78.36
43745;BME280;29359;53.048;8.732;2024-03-22T03:20:57;101746.66;;;9.35;78.39
43745;BME280;29359;53.048;8.732;2024-03-22T03:22:58;101741.44;;;9.37;78.57
43745;BME280;29359;53.048;8.732;2024-03-22T03:25:00;101734.50;;;9.36;78.36
43745;BME280;29359;53.048;8.732;2024-03-22T03:27:00;101730.94;;;9.38;78.17
43745;BME280;29359;53.048;8.732;2024-03-22T03:29:01;101730.94;;;9.40;78.29
43745;BME280;29359;53.048;8.732;2024-03-22T03:31:01;101718.78;;;9.39;78.38
43745;BME280;29359;53.048;8.732;2024-03-22T03:33:02;101723.94;;;9.42;78.47
43745;BME280;29359;53.048;8.732;2024-03-22T03:35:03;101727.38;;;9.44;78.36
43745;BME280;29359;53.048;8.732;2024-03-22T03:37:03;101727.38;;;9.44;78.38
43745;BME280;29359;53.048;8.732;2024-03-22T03:39:04;101726.53;;;9.43;78.65
43745;BME280;29359;53.048;8.732;2024-03-22T03:41:04;101727.38;;;9.44;78.72
43745;BME280;29359;53.048;8.732;2024-03-22T03:43:05;101732.53;;;9.47;78.52
43745;BME280;29359;53.048;8.732;2024-03-22T03:45:06;101720.31;;;9.49;78.75
43745;BME280;29359;53.048;8.732;2024-03-22T03:47:07;101717.72;;;9.49;78.61
43745;BME280;29359;53.048;8.732;2024-03-22T03:49:07;101715.91;;;9.52;78.56
43745;BME280;29359;53.048;8.732;2024-03-22T03:51:08;101719.38;;;9.53;78.61
43745;BME280;29359;53.048;8.732;2024-03-22T03:53:08;101708.97;;;9.51;78.60
43745;BME280;29359;53.048;8.732;2024-03-22T03:55:09;101708.09;;;9.52;78.66
43745;BME280;29359;53.048;8.732;2024-03-22T03:57:09;101701.13;;;9.53;78.79
43745;BME280;29359;53.048;8.732;2024-03-22T03:59:10;101689.78;;;9.54;78.64
43745;BME280;29359;53.048;8.732;2024-03-22T04:01:10;101683.69;;;9.55;78.65
43745;BME280;29359;53.048;8.732;2024-03-22T04:03:11;101680.19;;;9.56;78.68
43745;BME280;29359;53.048;8.732;2024-03-22T04:05:12;101676.72;;;9.55;78.93
43745;BME280;29359;53.048;8.732;2024-03-22T04:07:12;101669.75;;;9.56;78.87
43745;BME280;29359;53.048;8.732;2024-03-22T04:09:13;101675.84;;;9.56;79.01
43745;BME280;29359;53.048;8.732;2024-03-22T04:11:14;101674.97;;;9.56;79.19
43745;BME280;29359;53.048;8.732;2024-03-22T04:13:14;101675.78;;;9.58;79.37
43745;BME280;29359;53.048;8.732;2024-03-22T04:15:15;101673.22;;;9.56;78.91
43745;BME280;29359;53.048;8.732;2024-03-22T04:17:15;101672.25;;;9.61;79.17
43745;BME280;29359;53.048;8.732;2024-03-22T04:19:16;101672.25;;;9.61;79.18
43745;BME280;29359;53.048;8.732;2024-03-22T04:21:17;101667.06;;;9.61;79.25
43745;BME280;29359;53.048;8.732;2024-03-22T04:23:17;101667.06;;;9.61;78.98
43745;BME280;29359;53.048;8.732;2024-03-22T04:25:18;101664.41;;;9.62;79.21
43745;BME280;29359;53.048;8.732;2024-03-22T04:27:19;101655.69;;;9.63;79.08
43745;BME280;29359;53.048;8.732;2024-03-22T04:29:19;101654.81;;;9.64;79.23
43745;BME280;29359;53.048;8.732;2024-03-22T04:31:20;101662.63;;;9.64;79.46
43745;BME280;29359;53.048;8.732;2024-03-22T04:33:20;101660.84;;;9.66;79.49
43745;BME280;29359;53.048;8.732;2024-03-22T04:35:21;101657.34;;;9.67;79.11
43745;BME280;29359;53.048;8.732;2024-03-22T04:37:22;101657.25;;;9.70;79.17
43745;BME280;29359;53.048;8.732;2024-03-22T04:39:22;101656.41;;;9.70;79.09
43745;BME280;29359;53.048;8.732;2024-03-22T04:41:24;101651.22;;;9.68;79.36
43745;BME280;29359;53.048;8.732;2024-03-22T04:43:25;101645.09;;;9.71;79.38
43745;BME280;29359;53.048;8.732;2024-03-22T04:45:26;101647.72;;;9.71;79.50
43745;BME280;29359;53.048;8.732;2024-03-22T04:47:26;101647.66;;;9.72;79.46
43745;BME280;29359;53.048;8.732;2024-03-22T04:49:27;101641.59;;;9.70;79.46
43745;BME280;29359;53.048;8.732;2024-03-22T04:51:28;101636.34;;;9.73;79.25
43745;BME280;29359;53.048;8.732;2024-03-22T04:53:28;101640.66;;;9.74;79.52
43745;BME280;29359;53.048;8.732;2024-03-22T04:55:29;101646.72;;;9.76;79.55
43745;BME280;29359;53.048;8.732;2024-03-22T04:57:29;101640.63;;;9.76;79.63
43745;BME280;29359;53.048;8.732;2024-03-22T04:59:30;101632.75;;;9.77;79.65
43745;BME280;29359;53.048;8.732;2024-03-22T05:01:30;101633.63;;;9.78;79.66
43745;BME280;29359;53.048;8.732;2024-03-22T05:03:31;101641.44;;;9.79;79.80
43745;BME280;29359;53.048;8.732;2024-03-22T05:05:32;101625.72;;;9.81;79.66
43745;BME280;29359;53.048;8.732;2024-03-22T05:07:32;101637.88;;;9.82;79.46
43745;BME280;29359;53.048;8.732;2024-03-22T05:09:33;101632.66;;;9.82;79.33
43745;BME280;29359;53.048;8.732;2024-03-22T05:11:33;101614.31;;;9.85;79.58
43745;BME280;29359;53.048;8.732;2024-03-22T05:13:34;101622.16;;;9.85;79.44
43745;BME280;29359;53.048;8.732;2024-03-22T05:15:34;101621.28;;;9.84;79.59
43745;BME280;29359;53.048;8.732;2024-03-22T05:17:35;101623.00;;;9.87;79.40
43745;BME280;29359;53.048;8.732;2024-03-22T05:19:36;101616.81;;;9.90;79.51
43745;BME280;29359;53.048;8.732;2024-03-22T05:21:36;101620.28;;;9.90;79.48
43745;BME280;29359;53.048;8.732;2024-03-22T05:23:37;101615.97;;;9.89;79.78
43745;BME280;29359;53.048;8.732;2024-03-22T05:25:37;101619.44;;;9.90;79.59
43745;BME280;29359;53.048;8.732;2024-03-22T05:27:38;101613.34;;;9.91;79.67
43745;BME280;29359;53.048;8.732;2024-03-22T05:29:38;101614.16;;;9.93;79.75
43745;BME280;29359;53.048;8.732;2024-03-22T05:31:47;101623.69;;;9.94;79.57
43745;BME280;29359;53.048;8.732;2024-03-22T05:33:48;101611.53;;;9.94;79.63
43745;BME280;29359;53.048;8.732;2024-03-22T05:35:49;101613.25;;;9.94;79.75
43745;BME280;29359;53.048;8.732;2024-03-22T05:37:49;101615.78;;;9.97;79.75
43745;BME280;29359;53.048;8.732;2024-03-22T05:39:50;101619.19;;;10.00;79.46
43745;BME280;29359;53.048;8.732;2024-03-22T05:41:51;101619.19;;;10.00;79.68
43745;BME280;29359;53.048;8.732;2024-03-22T05:43:52;101616.63;;;9.99;79.52
43745;BME280;29359;53.048;8.732;2024-03-22T05:45:52;101614.88;;;9.99;79.98
43745;BME280;29359;53.048;8.732;2024-03-22T05:47:53;101610.50;;;10.00;79.78
43745;BME280;29359;53.048;8.732;2024-03-22T05:49:53;101605.34;;;9.98;79.97
43745;BME280;29359;53.048;8.732;2024-03-22T05:51:54;101602.69;;;10.00;79.94
43745;BME280;29359;53.048;8.732;2024-03-22T05:53:55;101599.16;;;10.01;79.90
43745;BME280;29359;53.048;8.732;2024-03-22T05:55:55;101605.22;;;10.03;79.77
43745;BME280;29359;53.048;8.732;2024-03-22T05:57:56;101593.94;;;10.02;79.83
43745;BME280;29359;53.048;8.732;2024-03-22T05:59:56;101592.06;;;10.06;79.93
43745;BME280;29359;53.048;8.732;2024-03-22T06:01:57;101588.66;;;10.04;79.91
43745;BME280;29359;53.048;8.732;2024-03-22T06:03:57;101590.28;;;10.08;79.93
43745;BME280;29359;53.048;8.732;2024-03-22T06:06:01;101571.16;;;10.07;80.20
43745;BME280;29359;53.048;8.732;2024-03-22T06:08:02;101582.41;;;10.09;80.04
43745;BME280;29359;53.048;8.732;2024-03-22T06:10:04;101576.34;;;10.09;80.10
43745;BME280;29359;53.048;8.732;2024-03-22T06:12:05;101584.16;;;10.11;80.05
43745;BME280;29359;53.048;8.732;2024-03-22T06:14:05;101578.84;;;10.14;80.12
43745;BME280;29359;53.048;8.732;2024-03-22T06:16:06;101568.38;;;10.15;80.02
43745;BME280;29359;53.048;8.732;2024-03-22T06:18:07;101563.94;;;10.17;79.86
43745;BME280;29359;53.048;8.732;2024-03-22T06:20:07;101561.28;;;10.20;80.07
43745;BME280;29359;53.048;8.732;2024-03-22T06:22:10;101558.59;;;10.23;79.61
43745;BME280;29359;53.048;8.732;2024-03-22T06:24:10;101542.03;;;10.24;79.72
43745;BME280;29359;53.048;8.732;2024-03-22T06:26:11;101548.13;;;10.25;79.90
43745;BME280;29359;53.048;8.732;2024-03-22T06:28:12;101561.19;;;10.25;79.76
43745;BME280;29359;53.048;8.732;2024-03-22T06:30:13;101562.91;;;10.24;79.93
43745;BME280;29359;53.048;8.732;2024-03-22T06:32:14;101558.50;;;10.28;79.88
43745;BME280;29359;53.048;8.732;2024-03-22T06:34:14;101558.50;;;10.28;80.01
43745;BME280;29359;53.048;8.732;2024-03-22T06:36:15;101554.13;;;10.30;80.04
43745;BME280;29359;53.048;8.732;2024-03-22T06:38:16;101559.34;;;10.30;80.07
43745;BME280;29359;53.048;8.732;2024-03-22T06:40:16;101549.75;;;10.29;79.94
43745;BME280;29359;53.048;8.732;2024-03-22T06:42:17;101558.44;;;10.29;80.19
43745;BME280;29359;53.048;8.732;2024-03-22T06:44:18;101558.44;;;10.31;80.11
43745;BME280;29359;53.048;8.732;2024-03-22T06:46:18;101549.75;;;10.29;80.15
43745;BME280;29359;53.048;8.732;2024-03-22T06:48:19;101554.13;;;10.30;80.27
43745;BME280;29359;53.048;8.732;2024-03-22T06:50:19;101548.88;;;10.30;80.54
43745;BME280;29359;53.048;8.732;2024-03-22T06:52:27;101557.53;;;10.32;80.43
43745;BME280;29359;53.048;8.732;2024-03-22T06:54:27;101550.59;;;10.31;80.65
43745;BME280;29359;53.048;8.732;2024-03-22T06:56:28;101558.44;;;10.29;80.82
43745;BME280;29359;53.048;8.732;2024-03-22T06:58:28;101562.75;;;10.32;80.70
43745;BME280;29359;53.048;8.732;2024-03-22T07:00:29;101559.34;;;10.30;80.95
43745;BME280;29359;53.048;8.732;2024-03-22T07:02:29;101561.13;;;10.28;81.15
43745;BME280;29359;53.048;8.732;2024-03-22T07:04:30;101556.78;;;10.27;81.55
43745;BME280;29359;53.048;8.732;2024-03-22T07:06:31;101555.03;;;10.27;82.05
43745;BME280;29359;53.048;8.732;2024-03-22T07:08:31;101554.19;;;10.27;82.00
43745;BME280;29359;53.048;8.732;2024-03-22T07:10:32;101553.41;;;10.22;82.61
43745;BME280;29359;53.048;8.732;2024-03-22T07:12:33;101531.69;;;10.20;82.50
43745;BME280;29359;53.048;8.732;2024-03-22T07:14:34;101528.25;;;10.18;83.01
43745;BME280;29359;53.048;8.732;2024-03-22T07:16:35;101534.38;;;10.17;83.03
43745;BME280;29359;53.048;8.732;2024-03-22T07:18:37;101528.34;;;10.15;83.26
43745;BME280;29359;53.048;8.732;2024-03-22T07:20:38;101531.78;;;10.17;83.22
43745;BME280;29359;53.048;8.732;2024-03-22T07:22:38;101525.66;;;10.18;83.44
43745;BME280;29359;53.048;8.732;2024-03-22T07:24:39;101526.56;;;10.17;83.55
43745;BME280;29359;53.048;8.732;2024-03-22T07:26:39;101539.59;;;10.17;83.75
43745;BME280;29359;53.048;8.732;2024-03-22T07:28:40;101534.38;;;10.18;84.01
43745;BME280;29359;53.048;8.732;2024-03-22T07:30:41;101530.84;;;10.19;83.97
43745;BME280;29359;53.048;8.732;2024-03-22T07:32:42;101531.75;;;10.18;84.05
43745;BME280;29359;53.048;8.732;2024-03-22T07:34:46;101522.16;;;10.19;84.05
43745;BME280;29359;53.048;8.732;2024-03-22T07:36:46;101530.88;;;10.18;84.15
43745;BME280;29359;53.048;8.732;2024-03-22T07:38:47;101522.22;;;10.16;84.20
43745;BME280;29359;53.048;8.732;2024-03-22T07:40:51;101528.25;;;10.18;84.23
43745;BME280;29359;53.048;8.732;2024-03-22T07:42:51;101517.00;;;10.16;84.32
43745;BME280;29359;53.048;8.732;2024-03-22T07:44:52;101523.16;;;10.13;84.66
43745;BME280;29359;53.048;8.732;2024-03-22T07:46:52;101521.41;;;10.14;84.69
43745;BME280;29359;53.048;8.732;2024-03-22T07:48:53;101510.22;;;10.10;84.74
43745;BME280;29359;53.048;8.732;2024-03-22T07:51:00;101519.75;;;10.09;85.11
43745;BME280;29359;53.048;8.732;2024-03-22T07:53:10;101521.50;;;10.11;85.33
43745;BME280;29359;53.048;8.732;2024-03-22T07:55:10;101510.22;;;10.10;85.13
43745;BME280;29359;53.048;8.732;2024-03-22T07:57:11;101522.38;;;10.09;85.35
43745;BME280;29359;53.048;8.732;2024-03-22T07:59:11;101523.16;;;10.13;85.05
43745;BME280;29359;53.048;8.732;2024-03-22T08:01:12;101519.69;;;10.13;85.07
43745;BME280;29359;53.048;8.732;2024-03-22T08:03:15;101516.28;;;10.11;85.21
43745;BME280;29359;53.048;8.732;2024-03-22T08:05:16;101514.47;;;10.13;85.49
43745;BME280;29359;53.048;8.732;2024-03-22T08:07:16;101517.91;;;10.15;85.42
43745;BME280;29359;53.048;8.732;2024-03-22T08:09:17;101514.41;;;10.16;85.34
43745;BME280;29359;53.048;8.732;2024-03-22T08:11:18;101511.78;;;10.16;85.20
43745;BME280;29359;53.048;8.732;2024-03-22T08:13:19;101512.59;;;10.18;85.51
43745;BME280;29359;53.048;8.732;2024-03-22T08:15:19;101506.50;;;10.19;85.52
43745;BME280;29359;53.048;8.732;2024-03-22T08:17:20;101507.28;;;10.21;85.58
43745;BME280;29359;53.048;8.732;2024-03-22T08:19:20;101508.13;;;10.23;85.57
43745;BME280;29359;53.048;8.732;2024-03-22T08:21:22;101499.38;;;10.25;85.39
43745;BME280;29359;53.048;8.732;2024-03-22T08:23:23;101497.53;;;10.29;84.95
43745;BME280;29359;53.048;8.732;2024-03-22T08:25:23;101501.84;;;10.31;85.19
43745;BME280;29359;53.048;8.732;2024-03-22T08:27:25;101495.69;;;10.34;84.89
43745;BME280;29359;53.048;8.732;2024-03-22T08:29:26;101489.56;;;10.35;84.93
43745;BME280;29359;53.048;8.732;2024-03-22T08:31:26;101493.78;;;10.39;84.62
43745;BME280;29359;53.048;8.732;2024-03-22T08:33:28;101480.72;;;10.39;84.67
43745;BME280;29359;53.048;8.732;2024-03-22T08:35:29;101476.38;;;10.40;84.87
43745;BME280;29359;53.048;8.732;2024-03-22T08:37:32;101489.34;;;10.43;84.33
43745;BME280;29359;53.048;8.732;2024-03-22T08:39:33;101482.38;;;10.43;84.56
43745;BME280;29359;53.048;8.732;2024-03-22T08:41:34;101494.50;;;10.46;84.26
43745;BME280;29359;53.048;8.732;2024-03-22T08:43:34;101488.41;;;10.45;83.90
43745;BME280;29359;53.048;8.732;2024-03-22T08:45:38;101487.50;;;10.46;83.31
43745;BME280;29359;53.048;8.732;2024-03-22T08:47:38;101486.59;;;10.47;82.68
43745;BME280;29359;53.048;8.732;2024-03-22T08:49:40;101485.69;;;10.48;82.65
43745;BME280;29359;53.048;8.732;2024-03-22T08:51:43;101481.31;;;10.50;83.02
43745;BME280;29359;53.048;8.732;2024-03-22T08:53:44;101481.25;;;10.52;82.46
43745;BME280;29359;53.048;8.732;2024-03-22T08:55:47;101476.94;;;10.51;82.53
43745;BME280;29359;53.048;8.732;2024-03-22T08:57:48;101476.06;;;10.50;82.00
43745;BME280;29359;53.048;8.732;2024-03-22T08:59:49;101477.84;;;10.50;82.00
43745;BME280;29359;53.048;8.732;2024-03-22T09:01:49;101475.16;;;10.51;82.11
43745;BME280;29359;53.048;8.732;2024-03-22T09:03:50;101476.88;;;10.52;81.86
43745;BME280;29359;53.048;8.732;2024-03-22T09:05:54;101476.00;;;10.53;81.63
43745;BME280;29359;53.048;8.732;2024-03-22T09:07:54;101469.03;;;10.52;81.56
43745;BME280;29359;53.048;8.732;2024-03-22T09:09:57;101470.78;;;10.53;81.66
43745;BME280;29359;53.048;8.732;2024-03-22T09:11:57;101468.97;;;10.55;81.74
43745;BME280;29359;53.048;8.732;2024-03-22T09:13:58;101459.22;;;10.61;81.85
43745;BME280;29359;53.048;8.732;2024-03-22T09:15:59;101462.66;;;10.63;81.00
43745;BME280;29359;53.048;8.732;2024-03-22T09:17:59;101465.22;;;10.64;81.03
43745;BME280;29359;53.048;8.732;2024-03-22T09:20:00;101453.06;;;10.63;81.17
43745;BME280;29359;53.048;8.732;2024-03-22T09:22:01;101461.81;;;10.62;80.34
43745;BME280;29359;53.048;8.732;2024-03-22T09:24:03;101458.38;;;10.60;80.47
43745;BME280;29359;53.048;8.732;2024-03-22T09:26:04;101455.75;;;10.62;80.07
43745;BME280;29359;53.048;8.732;2024-03-22T09:28:05;101460.09;;;10.61;80.35
43745;BME280;29359;53.048;8.732;2024-03-22T09:30:06;101454.06;;;10.59;80.22
43745;BME280;29359;53.048;8.732;2024-03-22T09:32:10;101458.44;;;10.57;80.34
43745;BME280;29359;53.048;8.732;2024-03-22T09:34:14;101457.66;;;10.55;80.39
43745;BME280;29359;53.048;8.732;2024-03-22T09:36:16;101454.19;;;10.54;80.59
43745;BME280;29359;53.048;8.732;2024-03-22T09:38:16;101447.28;;;10.52;80.96
43745;BME280;29359;53.048;8.732;2024-03-22T09:40:17;101462.03;;;10.54;80.80
43745;BME280;29359;53.048;8.732;2024-03-22T09:42:22;101462.94;;;10.53;80.75
43745;BME280;29359;53.048;8.732;2024-03-22T09:44:23;101459.50;;;10.51;80.39
43745;BME280;29359;53.048;8.732;2024-03-22T09:46:24;101453.41;;;10.51;80.45
43745;BME280;29359;53.048;8.732;2024-03-22T09:48:26;101451.66;;;10.51;80.08
43745;BME280;29359;53.048;8.732;2024-03-22T09:50:28;101465.66;;;10.49;79.67
43745;BME280;29359;53.048;8.732;2024-03-22T09:52:30;101457.88;;;10.47;79.77
43745;BME280;29359;53.048;8.732;2024-03-22T09:54:32;101458.78;;;10.46;79.27
43745;BME280;29359;53.048;8.732;2024-03-22T09:56:39;101462.38;;;10.42;80.07
43745;BME280;29359;53.048;8.732;2024-03-22T09:58:44;101464.13;;;10.42;79.73
43745;BME280;29359;53.048;8.732;2024-03-22T10:00:45;101456.44;;;10.36;80.56
43745;BME280;29359;53.048;8.732;2024-03-22T10:02:46;101456.50;;;10.34;80.82
43745;BME280;29359;53.048;8.732;2024-03-22T10:04:47;101461.69;;;10.36;81.33
43745;BME280;29359;53.048;8.732;2024-03-22T10:06:48;101461.63;;;10.37;81.34
43745;BME280;29359;53.048;8.732;2024-03-22T10:08:49;101462.53;;;10.36;81.33
43745;BME280;29359;53.048;8.732;2024-03-22T10:10:50;101469.44;;;10.39;81.25
43745;BME280;29359;53.048;8.732;2024-03-22T10:12:50;101462.41;;;10.41;81.74
43745;BME280;29359;53.048;8.732;2024-03-22T10:14:53;101471.75;;;10.49;81.88
43745;BME280;29359;53.048;8.732;2024-03-22T10:16:53;101463.81;;;10.52;81.48
43745;BME280;29359;53.048;8.732;2024-03-22T10:18:54;101473.31;;;10.55;81.34
43745;BME280;29359;53.048;8.732;2024-03-22T10:21:02;101460.13;;;10.60;81.05
43745;BME280;29359;53.048;8.732;2024-03-22T10:23:02;101460.81;;;10.66;81.28
43745;BME280;29359;53.048;8.732;2024-03-22T10:25:04;101464.22;;;10.70;80.84
43745;BME280;29359;53.048;8.732;2024-03-22T10:27:06;101464.22;;;10.68;80.73
43745;BME280;29359;53.048;8.732;2024-03-22T10:29:11;101461.53;;;10.71;80.16
43745;BME280;29359;53.048;8.732;2024-03-22T10:31:13;101455.41;;;10.72;80.43
43745;BME280;29359;53.048;8.732;2024-03-22T10:33:15;101457.78;;;10.80;80.12
43745;BME280;29359;53.048;8.732;2024-03-22T10:35:16;101448.16;;;10.82;80.38
43745;BME280;29359;53.048;8.732;2024-03-22T10:37:17;101460.31;;;10.85;80.24